createdAt,value
2022-11-01T00:01:57.533Z,5.20
2022-11-01T00:04:25.331Z,5.90
2022-11-01T00:06:54.392Z,5.55
2022-11-01T00:09:22.364Z,5.60
2022-11-01T00:11:50.295Z,5.53
2022-11-01T00:14:19.900Z,6.35
2022-11-01T00:16:48.045Z,5.30
2022-11-01T00:19:16.239Z,5.35
2022-11-01T00:21:43.875Z,5.32
2022-11-01T00:24:13.279Z,5.28
2022-11-01T00:26:41.146Z,5.80
2022-11-01T00:29:09.031Z,6.07
2022-11-01T00:34:06.093Z,5.20
2022-11-01T00:36:33.917Z,5.30
2022-11-01T00:39:01.582Z,5.70
2022-11-01T00:41:30.711Z,5.47
2022-11-01T00:43:58.310Z,5.88
2022-11-01T00:46:26.006Z,5.65
2022-11-01T00:48:53.646Z,5.57
2022-11-01T00:51:21.356Z,6.00
2022-11-01T00:53:49.041Z,5.35
2022-11-01T00:56:16.874Z,4.78
2022-11-01T01:01:13.565Z,6.28
2022-11-01T01:03:41.344Z,5.25
2022-11-01T01:06:09.096Z,5.35
2022-11-01T01:08:36.708Z,5.43
2022-11-01T01:11:04.339Z,5.43
2022-11-01T01:13:31.982Z,4.70
2022-11-01T01:16:01.052Z,5.43
2022-11-01T01:18:28.698Z,5.38
2022-11-01T01:21:01.746Z,4.70
2022-11-01T01:23:29.436Z,4.97
2022-11-01T01:25:57.093Z,5.13
2022-11-01T01:28:24.770Z,5.07
2022-11-01T01:30:52.367Z,5.05
2022-11-01T01:33:21.356Z,5.05
2022-11-01T01:35:49.038Z,5.13
2022-11-01T01:38:16.680Z,5.43
2022-11-01T01:40:44.277Z,4.68
2022-11-01T01:43:13.183Z,5.70
2022-11-01T01:45:42.551Z,5.30
2022-11-01T01:48:20.587Z,5.22
2022-11-01T01:50:57.196Z,4.72
2022-11-01T01:53:29.700Z,4.25
2022-11-01T01:56:00.757Z,4.57
2022-11-01T01:58:32.327Z,5.03
2022-11-01T02:01:00.521Z,5.38
2022-11-01T02:03:31.311Z,5.50
2022-11-01T02:06:04.808Z,4.60
2022-11-01T02:08:33.621Z,5.15
2022-11-01T02:11:03.607Z,4.75
2022-11-01T02:13:32.240Z,5.63
2022-11-01T02:16:28.077Z,5.03
2022-11-01T02:19:04.849Z,4.75
2022-11-01T02:21:55.022Z,5.07
2022-11-01T02:24:45.123Z,4.93
2022-11-01T02:27:21.475Z,4.55
2022-11-01T02:30:12.968Z,4.85
2022-11-01T02:33:06.025Z,5.03
2022-11-01T02:35:46.549Z,4.50
2022-11-01T02:38:22.157Z,4.90
2022-11-01T02:40:58.869Z,4.63
2022-11-01T02:43:32.012Z,4.38
2022-11-01T02:46:23.593Z,4.10
2022-11-01T02:48:54.540Z,4.13
2022-11-01T02:51:24.602Z,4.00
2022-11-01T02:53:52.222Z,4.95
2022-11-01T02:56:22.272Z,4.55
2022-11-01T02:58:52.326Z,4.53
2022-11-01T03:01:26.577Z,4.57
2022-11-01T03:03:58.160Z,4.63
2022-11-01T03:06:32.041Z,4.40
2022-11-01T03:09:03.600Z,4.20
2022-11-01T03:11:37.440Z,4.30
2022-11-01T03:14:14.306Z,4.65
2022-11-01T03:16:48.864Z,4.20
2022-11-01T03:22:00.121Z,3.50
2022-11-01T03:24:30.128Z,4.38
2022-11-01T03:27:06.168Z,4.22
2022-11-01T03:29:36.137Z,4.30
2022-11-01T03:32:05.033Z,4.45
2022-11-01T03:34:36.428Z,3.78
2022-11-01T03:37:08.562Z,3.90
2022-11-01T03:39:42.335Z,3.50
2022-11-01T03:42:14.602Z,3.90
2022-11-01T03:44:46.064Z,4.18
2022-11-01T03:47:14.300Z,4.95
2022-11-01T03:49:43.303Z,4.10
2022-11-01T03:52:11.089Z,3.42
2022-11-01T03:57:06.292Z,3.50
2022-11-01T04:02:01.598Z,2.08
2022-11-01T04:06:58.131Z,1.38
2022-11-01T04:09:25.763Z,1.80
2022-11-01T04:11:53.415Z,1.50
2022-11-01T04:14:34.968Z,1.58
2022-11-01T04:17:20.294Z,1.02
2022-11-01T04:20:05.505Z,0.90
2022-11-01T04:22:34.890Z,0.93
2022-11-01T04:25:02.506Z,0.95
2022-11-01T04:27:30.108Z,1.00
2022-11-01T04:29:57.751Z,1.10
2022-11-01T04:32:25.389Z,1.00
2022-11-01T04:34:53.151Z,1.23
2022-11-01T04:39:50.171Z,1.13
2022-11-01T04:42:17.794Z,1.05
2022-11-01T04:44:46.764Z,0.90
2022-11-01T04:47:14.399Z,1.00
2022-11-01T04:49:42.040Z,0.85
2022-11-01T04:52:09.656Z,1.15
2022-11-01T04:54:37.244Z,1.15
2022-11-01T04:57:06.323Z,0.90
2022-11-01T04:59:33.956Z,1.08
2022-11-01T05:02:01.721Z,0.90
2022-11-01T05:04:29.384Z,0.93
2022-11-01T05:06:57.015Z,1.10
2022-11-01T05:09:24.673Z,0.95
2022-11-01T05:11:52.297Z,0.93
2022-11-01T05:14:21.287Z,0.90
2022-11-01T05:16:48.897Z,0.70
2022-11-01T05:19:16.984Z,1.00
2022-11-01T05:21:44.615Z,1.00
2022-11-01T05:24:12.267Z,0.90
2022-11-01T05:26:40.268Z,0.80
2022-11-01T05:29:08.974Z,0.80
2022-11-01T05:31:47.618Z,0.60
2022-11-01T05:34:15.331Z,0.75
2022-11-01T05:36:42.972Z,0.68
2022-11-01T05:39:10.764Z,1.00
2022-11-01T05:41:38.586Z,0.80
2022-11-01T05:44:06.372Z,0.70
2022-11-01T05:46:34.219Z,0.50
2022-11-01T05:49:03.498Z,0.70
2022-11-01T05:51:31.152Z,0.90
2022-11-01T05:53:58.793Z,0.80
2022-11-01T05:56:26.452Z,0.90
2022-11-01T05:58:54.088Z,0.70
2022-11-01T06:01:21.758Z,0.60
2022-11-01T06:03:50.931Z,0.80
2022-11-01T06:06:19.970Z,1.02
2022-11-01T06:08:47.665Z,0.95
2022-11-01T06:11:16.026Z,0.98
2022-11-01T06:13:43.674Z,1.02
2022-11-01T06:16:11.392Z,0.98
2022-11-01T06:18:39.034Z,0.85
2022-11-01T06:21:07.213Z,0.82
2022-11-01T06:23:36.280Z,0.98
2022-11-01T06:26:05.260Z,1.00
2022-11-01T06:28:33.498Z,0.80
2022-11-01T06:31:02.486Z,0.57
2022-11-01T06:33:30.537Z,0.70
2022-11-01T06:38:26.291Z,0.90
2022-11-01T06:40:55.264Z,0.90
2022-11-01T06:43:22.911Z,0.50
2022-11-01T06:45:50.571Z,1.10
2022-11-01T06:48:18.311Z,0.73
2022-11-01T06:50:45.993Z,0.75
2022-11-01T06:53:13.597Z,0.95
2022-11-01T06:55:41.264Z,0.65
2022-11-01T06:58:10.357Z,0.77
2022-11-01T07:00:38.022Z,1.13
2022-11-01T07:03:07.717Z,0.73
2022-11-01T07:06:19.801Z,0.90
2022-11-01T07:08:49.730Z,1.08
2022-11-01T07:11:17.400Z,0.93
2022-11-01T07:13:46.439Z,0.98
2022-11-01T07:16:14.288Z,1.25
2022-11-01T07:18:42.052Z,0.88
2022-11-01T07:21:09.749Z,1.15
2022-11-01T07:23:37.399Z,0.82
2022-11-01T07:26:05.356Z,0.70
2022-11-01T07:31:02.159Z,1.05
2022-11-01T07:33:30.168Z,1.23
2022-11-01T07:35:57.848Z,1.13
2022-11-01T07:38:25.488Z,0.68
2022-11-01T07:40:54.620Z,1.25
2022-11-01T07:43:22.693Z,1.55
2022-11-01T07:45:50.869Z,1.50
2022-11-01T07:48:20.725Z,1.20
2022-11-01T07:50:51.041Z,1.13
2022-11-01T07:53:20.122Z,1.15
2022-11-01T07:55:48.252Z,1.40
2022-11-01T07:58:16.774Z,0.93
2022-11-01T08:00:45.251Z,1.00
2022-11-01T08:03:14.297Z,2.13
2022-11-01T08:05:44.075Z,0.98
2022-11-01T08:08:12.307Z,1.30
2022-11-01T08:10:40.357Z,1.13
2022-11-01T08:13:09.520Z,0.95
2022-11-01T08:15:37.179Z,1.13
2022-11-01T08:18:05.353Z,1.58
2022-11-01T08:20:33.274Z,0.77
2022-11-01T08:23:02.611Z,0.73
2022-11-01T08:25:30.920Z,0.55
2022-11-01T08:28:02.323Z,0.98
2022-11-01T08:30:30.003Z,1.23
2022-11-01T08:33:01.873Z,1.42
2022-11-01T08:35:30.676Z,0.93
2022-11-01T08:37:59.053Z,1.08
2022-11-01T08:40:29.289Z,1.05
2022-11-01T08:42:57.228Z,1.35
2022-11-01T08:45:25.823Z,1.08
2022-11-01T08:47:59.159Z,1.13
2022-11-01T08:50:27.760Z,0.85
2022-11-01T08:52:55.405Z,1.17
2022-11-01T08:55:23.789Z,1.00
2022-11-01T08:57:52.812Z,1.50
2022-11-01T09:00:21.385Z,1.05
2022-11-01T09:02:49.079Z,1.20
2022-11-01T09:05:16.835Z,1.23
2022-11-01T09:07:44.606Z,0.95
2022-11-01T09:10:12.876Z,0.82
2022-11-01T09:15:14.425Z,1.30
2022-11-01T09:17:42.078Z,1.35
2022-11-01T09:20:11.067Z,1.23
2022-11-01T09:22:38.730Z,0.82
2022-11-01T09:25:07.120Z,1.33
2022-11-01T09:27:34.819Z,1.10
2022-11-01T09:30:02.467Z,1.05
2022-11-01T09:32:31.564Z,1.15
2022-11-01T09:34:59.182Z,1.52
2022-11-01T09:37:26.774Z,1.10
2022-11-01T09:39:54.370Z,1.40
2022-11-01T09:42:26.271Z,0.95
2022-11-01T09:44:56.457Z,0.93
2022-11-01T09:47:27.988Z,1.17
2022-11-01T09:50:04.499Z,1.15
2022-11-01T09:52:32.280Z,1.27
2022-11-01T09:57:36.141Z,1.40
2022-11-01T10:00:08.773Z,1.20
2022-11-01T10:03:07.456Z,1.20
2022-11-01T10:05:50.835Z,1.00
2022-11-01T10:08:33.484Z,0.93
2022-11-01T10:11:20.905Z,1.65
2022-11-01T10:13:59.555Z,1.00
2022-11-01T10:16:34.596Z,1.17
2022-11-01T10:19:05.416Z,1.20
2022-11-01T10:21:42.931Z,1.20
2022-11-01T10:24:21.651Z,1.55
2022-11-01T10:26:54.268Z,1.00
2022-11-01T10:29:29.029Z,1.20
2022-11-01T10:31:58.902Z,1.20
2022-11-01T10:34:34.844Z,1.20
2022-11-01T10:37:16.172Z,1.52
2022-11-01T10:39:56.363Z,1.13
2022-11-01T10:42:29.220Z,1.15
2022-11-01T10:44:59.968Z,1.30
2022-11-01T10:47:29.009Z,1.02
2022-11-01T10:50:06.126Z,1.30
2022-11-01T10:52:46.566Z,1.27
2022-11-01T10:55:18.547Z,1.20
2022-11-01T10:57:52.673Z,2.03
2022-11-01T11:00:21.958Z,1.30
2022-11-01T11:02:52.909Z,1.08
2022-11-01T11:05:23.251Z,1.38
2022-11-01T11:07:52.506Z,1.33
2022-11-01T11:10:24.357Z,1.15
2022-11-01T11:12:58.016Z,1.13
2022-11-01T11:15:41.336Z,1.02
2022-11-01T11:18:20.393Z,1.05
2022-11-01T11:20:52.513Z,1.50
2022-11-01T11:23:23.306Z,1.45
2022-11-01T11:25:51.568Z,1.52
2022-11-01T11:28:26.641Z,1.02
2022-11-01T11:30:54.587Z,0.90
2022-11-01T11:33:23.151Z,1.25
2022-11-01T11:35:56.276Z,1.27
2022-11-01T11:38:44.543Z,1.40
2022-11-01T11:41:13.924Z,1.00
2022-11-01T11:43:42.600Z,1.00
2022-11-01T11:46:19.100Z,1.45
2022-11-01T11:48:52.319Z,1.02
2022-11-01T11:51:21.351Z,1.00
2022-11-01T11:54:22.033Z,1.10
2022-11-01T11:56:52.747Z,1.05
2022-11-01T11:59:26.472Z,1.30
2022-11-01T12:02:00.002Z,1.08
2022-11-01T12:04:32.424Z,1.45
2022-11-01T12:07:00.052Z,1.10
2022-11-01T12:09:45.109Z,1.15
2022-11-01T12:12:20.952Z,1.25
2022-11-01T12:14:48.867Z,1.35
2022-11-01T12:17:27.987Z,0.98
2022-11-01T12:20:13.370Z,0.93
2022-11-01T12:22:45.582Z,1.15
2022-11-01T12:25:19.065Z,1.00
2022-11-01T12:27:59.429Z,1.10
2022-11-01T12:30:31.177Z,1.27
2022-11-01T12:33:00.814Z,1.23
2022-11-01T12:35:32.080Z,1.20
2022-11-01T12:38:13.612Z,1.40
2022-11-01T12:40:44.645Z,1.42
2022-11-01T12:43:17.018Z,1.20
2022-11-01T12:45:52.122Z,1.35
2022-11-01T12:48:28.133Z,1.10
2022-11-01T12:50:59.554Z,0.90
2022-11-01T12:53:31.654Z,1.30
2022-11-01T12:56:01.091Z,1.33
2022-11-01T12:58:33.520Z,1.02
2022-11-01T13:01:19.443Z,1.13
2022-11-01T13:03:54.674Z,0.93
2022-11-01T13:06:40.414Z,1.10
2022-11-01T13:09:15.865Z,1.02
2022-11-01T13:11:56.667Z,1.40
2022-11-01T13:14:35.017Z,1.10
2022-11-01T13:17:10.881Z,1.30
2022-11-01T13:19:48.525Z,1.20
2022-11-01T13:22:24.008Z,0.90
2022-11-01T13:24:59.196Z,1.30
2022-11-01T13:27:37.665Z,0.98
2022-11-01T13:30:11.147Z,0.90
2022-11-01T13:32:47.227Z,0.80
2022-11-01T13:35:38.396Z,1.40
2022-11-01T13:38:19.608Z,1.10
2022-11-01T13:40:57.962Z,0.73
2022-11-01T13:43:34.082Z,0.90
2022-11-01T13:46:26.564Z,1.50
2022-11-01T13:49:29.872Z,1.10
2022-11-01T13:52:03.041Z,1.00
2022-11-01T13:54:36.725Z,0.88
2022-11-01T13:57:12.868Z,0.95
2022-11-01T13:59:56.003Z,1.17
2022-11-01T14:02:55.147Z,0.90
2022-11-01T14:05:23.146Z,1.00
2022-11-01T14:08:14.711Z,0.80
2022-11-01T14:10:50.905Z,1.00
2022-11-01T14:13:31.482Z,1.00
2022-11-01T14:16:24.036Z,1.25
2022-11-01T14:19:22.824Z,1.10
2022-11-01T14:21:54.420Z,1.38
2022-11-01T14:24:28.345Z,1.00
2022-11-01T14:27:07.877Z,0.90
2022-11-01T14:29:37.123Z,1.13
2022-11-01T14:32:07.152Z,0.77
2022-11-01T14:34:38.861Z,0.90
2022-11-01T14:37:20.316Z,1.17
2022-11-01T14:39:55.694Z,0.90
2022-11-01T14:42:30.867Z,0.68
2022-11-01T14:45:01.005Z,1.15
2022-11-01T14:47:35.525Z,0.88
2022-11-01T14:50:15.737Z,1.05
2022-11-01T14:52:48.599Z,1.00
2022-11-01T14:55:21.434Z,1.27
2022-11-01T14:57:49.518Z,0.90
2022-11-01T15:00:23.586Z,1.05
2022-11-01T15:02:53.218Z,0.75
2022-11-01T15:05:21.128Z,1.00
2022-11-01T15:07:52.247Z,0.88
2022-11-01T15:10:20.201Z,1.10
2022-11-01T15:12:51.231Z,1.35
2022-11-01T15:15:23.304Z,1.10
2022-11-01T15:17:56.298Z,0.95
2022-11-01T15:20:26.956Z,0.85
2022-11-01T15:22:56.536Z,1.10
2022-11-01T15:25:27.524Z,0.73
2022-11-01T15:27:58.020Z,0.70
2022-11-01T15:30:28.120Z,0.90
2022-11-01T15:33:21.276Z,1.00
2022-11-01T15:35:55.049Z,0.68
2022-11-01T15:38:23.497Z,0.70
2022-11-01T15:40:52.209Z,0.70
2022-11-01T15:43:21.511Z,0.98
2022-11-01T15:45:53.040Z,1.00
2022-11-01T15:48:25.796Z,0.88
2022-11-01T15:50:58.206Z,1.13
2022-11-01T15:53:31.031Z,1.10
2022-11-01T15:56:05.095Z,1.17
2022-11-01T15:58:37.689Z,0.85
2022-11-01T16:01:13.215Z,1.00
2022-11-01T16:03:48.411Z,1.00
2022-11-01T16:06:20.515Z,0.90
2022-11-01T16:08:53.120Z,0.95
2022-11-01T16:11:23.345Z,0.90
2022-11-01T16:13:54.368Z,0.77
2022-11-01T16:16:22.054Z,1.00
2022-11-01T16:18:51.112Z,0.80
2022-11-01T16:21:27.761Z,1.08
2022-11-01T16:24:04.018Z,0.90
2022-11-01T16:26:34.576Z,0.90
2022-11-01T16:29:02.216Z,0.90
2022-11-01T16:31:33.219Z,0.90
2022-11-01T16:34:03.099Z,0.88
2022-11-01T16:36:42.517Z,1.00
2022-11-01T16:39:30.984Z,0.98
2022-11-01T16:41:59.444Z,1.02
2022-11-01T16:44:27.233Z,1.10
2022-11-01T16:49:26.830Z,0.93
2022-11-01T16:51:56.466Z,1.00
2022-11-01T16:54:24.398Z,1.13
2022-11-01T16:56:54.326Z,1.10
2022-11-01T16:59:29.831Z,1.20
2022-11-01T17:01:58.961Z,0.80
2022-11-01T17:04:29.419Z,1.30
2022-11-01T17:06:58.745Z,1.05
2022-11-01T17:09:30.641Z,1.20
2022-11-01T17:11:58.306Z,0.70
2022-11-01T17:14:26.360Z,1.30
2022-11-01T17:16:56.171Z,1.30
2022-11-01T17:19:27.094Z,0.90
2022-11-01T17:21:57.165Z,1.42
2022-11-01T17:24:27.255Z,1.05
2022-11-01T17:26:58.689Z,1.30
2022-11-01T17:29:26.383Z,1.25
2022-11-01T17:31:54.039Z,1.23
2022-11-01T17:34:21.822Z,0.93
2022-11-01T17:39:21.155Z,1.52
2022-11-01T17:41:50.670Z,1.20
2022-11-01T17:44:18.398Z,1.55
2022-11-01T17:46:46.007Z,1.15
2022-11-01T17:49:15.661Z,1.20
2022-11-01T17:51:44.021Z,1.25
2022-11-01T17:54:11.703Z,1.23
2022-11-01T17:56:40.755Z,0.95
2022-11-01T17:59:08.716Z,1.20
2022-11-01T18:01:38.186Z,1.02
2022-11-01T18:04:06.326Z,1.25
2022-11-01T18:06:33.998Z,1.00
2022-11-01T18:09:01.702Z,1.55
2022-11-01T18:11:40.958Z,1.33
2022-11-01T18:14:17.148Z,1.30
2022-11-01T18:16:49.282Z,1.60
2022-11-01T18:19:42.092Z,1.55
2022-11-01T18:22:17.069Z,1.35
2022-11-01T18:24:51.139Z,1.20
2022-11-01T18:27:25.156Z,1.20
2022-11-01T18:29:52.825Z,1.20
2022-11-01T18:32:27.052Z,1.02
2022-11-01T18:35:00.827Z,1.40
2022-11-01T18:37:36.614Z,1.30
2022-11-01T18:40:14.343Z,1.25
2022-11-01T18:42:43.484Z,1.02
2022-11-01T18:45:19.578Z,1.40
2022-11-01T18:47:51.331Z,1.10
2022-11-01T18:50:23.507Z,1.58
2022-11-01T18:52:59.077Z,1.40
2022-11-01T18:55:26.811Z,1.63
2022-11-01T18:57:56.127Z,1.05
2022-11-01T19:00:23.853Z,1.20
2022-11-01T19:02:55.958Z,1.02
2022-11-01T19:05:27.834Z,1.45
2022-11-01T19:08:11.027Z,1.23
2022-11-01T19:10:39.366Z,1.30
2022-11-01T19:13:13.332Z,1.60
2022-11-01T19:15:41.128Z,0.90
2022-11-01T19:20:48.336Z,1.10
2022-11-01T19:23:19.500Z,1.00
2022-11-01T19:25:47.496Z,1.20
2022-11-01T19:28:25.515Z,1.42
2022-11-01T19:30:55.689Z,1.50
2022-11-01T19:33:32.111Z,1.20
2022-11-01T19:36:04.041Z,1.05
2022-11-01T19:38:32.052Z,1.63
2022-11-01T19:41:00.083Z,0.98
2022-11-01T19:43:29.324Z,1.13
2022-11-01T19:45:59.573Z,1.50
2022-11-01T19:48:30.588Z,1.67
2022-11-01T19:50:58.317Z,1.55
2022-11-01T19:53:29.517Z,1.17
2022-11-01T19:56:00.559Z,1.55
2022-11-01T19:58:43.643Z,1.55
2022-11-01T20:01:41.028Z,1.92
2022-11-01T20:04:17.318Z,1.55
2022-11-01T20:06:49.611Z,1.58
2022-11-01T20:09:23.564Z,1.63
2022-11-01T20:11:51.264Z,1.45
2022-11-01T20:14:20.592Z,1.50
2022-11-01T20:16:48.229Z,1.52
2022-11-01T20:19:17.734Z,1.70
2022-11-01T20:21:45.744Z,1.45
2022-11-01T20:24:13.782Z,1.77
2022-11-01T20:26:41.446Z,1.50
2022-11-01T20:29:10.818Z,1.48
2022-11-01T20:31:40.164Z,1.60
2022-11-01T20:34:09.227Z,1.35
2022-11-01T20:36:36.936Z,1.60
2022-11-01T20:39:05.054Z,1.13
2022-11-01T20:41:32.694Z,1.60
2022-11-01T20:44:00.539Z,1.65
2022-11-01T20:48:56.990Z,1.88
2022-11-01T20:51:25.261Z,1.73
2022-11-01T20:53:52.962Z,2.20
2022-11-01T20:56:20.674Z,1.60
2022-11-01T20:58:48.400Z,2.17
2022-11-01T21:01:16.318Z,1.80
2022-11-01T21:03:44.486Z,1.52
2022-11-01T21:06:15.458Z,1.55
2022-11-01T21:08:44.989Z,1.73
2022-11-01T21:11:20.684Z,1.33
2022-11-01T21:13:50.847Z,1.48
2022-11-01T21:16:24.503Z,1.88
2022-11-01T21:19:00.858Z,1.70
2022-11-01T21:21:33.529Z,1.50
2022-11-01T21:24:18.162Z,1.83
2022-11-01T21:26:51.996Z,1.85
2022-11-01T21:29:27.906Z,1.90
2022-11-01T21:31:56.412Z,2.13
2022-11-01T21:34:27.003Z,2.03
2022-11-01T21:36:57.892Z,2.08
2022-11-01T21:39:28.646Z,1.80
2022-11-01T21:41:57.929Z,1.52
2022-11-01T21:44:29.175Z,1.65
2022-11-01T21:46:59.327Z,1.63
2022-11-01T21:49:29.504Z,1.67
2022-11-01T21:52:01.002Z,1.58
2022-11-01T21:54:30.103Z,1.52
2022-11-01T21:56:58.429Z,1.20
2022-11-01T21:59:26.908Z,1.27
2022-11-01T22:01:55.919Z,1.45
2022-11-01T22:04:28.501Z,1.10
2022-11-01T22:06:58.660Z,1.15
2022-11-01T22:09:27.133Z,0.90
2022-11-01T22:11:55.124Z,1.02
2022-11-01T22:16:50.276Z,0.98
2022-11-01T22:19:18.043Z,0.90
2022-11-01T22:24:20.232Z,0.73
2022-11-01T22:26:47.963Z,1.20
2022-11-01T22:29:15.624Z,0.90
2022-11-01T22:31:43.348Z,0.80
2022-11-01T22:34:10.964Z,1.00
2022-11-01T22:36:41.467Z,0.70
2022-11-01T22:39:15.316Z,1.02
2022-11-01T22:41:44.583Z,0.77
2022-11-01T22:44:14.967Z,0.95
2022-11-01T22:46:46.825Z,0.88
2022-11-01T22:49:20.204Z,0.90
2022-11-01T22:51:50.342Z,1.00
2022-11-01T22:54:39.887Z,0.77
2022-11-01T22:57:16.559Z,0.98
2022-11-01T22:59:47.220Z,0.75
2022-11-01T23:02:26.986Z,0.90
2022-11-01T23:05:03.597Z,0.75
2022-11-01T23:07:34.825Z,0.93
2022-11-01T23:10:06.168Z,0.93
2022-11-01T23:12:55.196Z,1.15
2022-11-01T23:15:27.919Z,1.00
2022-11-01T23:18:02.175Z,1.10
2022-11-01T23:20:30.788Z,1.15
2022-11-01T23:23:00.076Z,0.90
2022-11-01T23:25:27.735Z,1.20
2022-11-01T23:27:56.792Z,1.27
2022-11-01T23:30:24.447Z,1.30
2022-11-01T23:32:52.087Z,1.27
2022-11-01T23:35:22.499Z,1.42
2022-11-01T23:37:51.260Z,1.27
2022-11-01T23:40:21.873Z,1.20
2022-11-01T23:42:50.322Z,1.00
2022-11-01T23:45:28.598Z,1.50
2022-11-01T23:47:56.760Z,1.67
2022-11-01T23:50:28.447Z,1.25
2022-11-01T23:52:58.994Z,1.15
2022-11-01T23:55:29.502Z,1.40
2022-11-01T23:57:59.762Z,1.50
